createdAt,value
2023-03-15T00:00:13.158Z,15.88
2023-03-15T00:01:21.001Z,15.79
2023-03-15T00:02:22.914Z,15.89
2023-03-15T00:03:24.897Z,15.89
2023-03-15T00:04:27.960Z,15.88
2023-03-15T00:05:29.986Z,15.88
2023-03-15T00:06:36.000Z,15.87
2023-03-15T00:07:38.043Z,15.89
2023-03-15T00:08:39.897Z,15.88
2023-03-15T00:09:41.660Z,15.72
2023-03-15T00:10:45.462Z,15.85
2023-03-15T00:11:47.265Z,15.86
2023-03-15T00:12:49.033Z,15.81
2023-03-15T00:13:51.664Z,15.84
2023-03-15T00:14:53.597Z,15.83
2023-03-15T00:15:59.008Z,15.83
2023-03-15T00:17:00.859Z,15.83
2023-03-15T00:18:03.310Z,15.83
2023-03-15T00:19:05.141Z,15.76
2023-03-15T00:20:07.977Z,15.80
2023-03-15T00:21:09.754Z,15.81
2023-03-15T00:22:11.556Z,15.81
2023-03-15T00:23:14.428Z,15.79
2023-03-15T00:24:16.209Z,15.73
2023-03-15T00:25:18.109Z,15.79
2023-03-15T00:26:19.992Z,15.79
2023-03-15T00:27:21.836Z,15.79
2023-03-15T00:28:23.616Z,15.77
2023-03-15T00:29:27.080Z,15.78
2023-03-15T00:30:28.911Z,15.78
2023-03-15T00:31:30.983Z,15.70
2023-03-15T00:32:32.911Z,15.68
2023-03-15T00:33:35.342Z,15.53
2023-03-15T00:34:37.174Z,15.75
2023-03-15T00:35:43.053Z,15.76
2023-03-15T00:36:45.775Z,15.76
2023-03-15T00:37:48.128Z,15.70
2023-03-15T00:38:52.010Z,15.75
2023-03-15T00:39:55.763Z,15.76
2023-03-15T00:40:57.695Z,15.76
2023-03-15T00:41:59.590Z,15.75
2023-03-15T00:43:01.437Z,15.75
2023-03-15T00:44:07.141Z,15.74
2023-03-15T00:45:10.610Z,15.69
2023-03-15T00:46:13.236Z,15.75
2023-03-15T00:47:15.153Z,15.68
2023-03-15T00:48:17.005Z,15.74
2023-03-15T00:49:18.873Z,15.73
2023-03-15T00:50:22.992Z,15.73
2023-03-15T00:51:25.016Z,15.63
2023-03-15T00:52:27.445Z,15.72
2023-03-15T00:53:29.233Z,15.71
2023-03-15T00:54:33.572Z,15.71
2023-03-15T00:55:35.658Z,15.62
2023-03-15T00:56:38.665Z,15.73
2023-03-15T00:57:41.976Z,15.68
2023-03-15T00:58:44.101Z,15.69
2023-03-15T00:59:46.597Z,15.67
2023-03-15T01:00:48.406Z,15.69
2023-03-15T01:01:51.228Z,15.69
2023-03-15T01:02:54.488Z,15.61
2023-03-15T01:03:56.560Z,15.69
2023-03-15T01:04:59.764Z,15.69
2023-03-15T01:06:25.627Z,15.66
2023-03-15T01:07:27.590Z,15.72
2023-03-15T01:08:29.425Z,15.69
2023-03-15T01:09:31.706Z,15.68
2023-03-15T01:10:35.633Z,15.66
2023-03-15T01:11:37.564Z,15.41
2023-03-15T01:12:39.517Z,15.64
2023-03-15T01:13:41.658Z,15.63
2023-03-15T01:14:43.512Z,15.62
2023-03-15T01:15:47.768Z,15.57
2023-03-15T01:16:49.770Z,15.63
2023-03-15T01:17:51.564Z,15.59
2023-03-15T01:18:53.979Z,15.58
2023-03-15T01:19:56.168Z,15.59
2023-03-15T01:20:58.834Z,15.57
2023-03-15T01:22:00.715Z,15.48
2023-03-15T01:23:02.508Z,15.58
2023-03-15T01:24:04.446Z,15.36
2023-03-15T01:25:06.818Z,15.46
2023-03-15T01:26:12.500Z,15.55
2023-03-15T01:27:14.376Z,15.57
2023-03-15T01:28:16.842Z,15.57
2023-03-15T01:29:18.737Z,15.57
2023-03-15T01:30:20.741Z,15.46
2023-03-15T01:31:30.334Z,15.45
2023-03-15T01:32:32.308Z,15.55
2023-03-15T01:33:34.155Z,15.54
2023-03-15T01:34:36.756Z,15.49
2023-03-15T01:35:38.653Z,15.54
2023-03-15T01:36:40.576Z,15.53
2023-03-15T01:37:42.363Z,15.51
2023-03-15T01:38:44.594Z,15.46
2023-03-15T01:39:49.092Z,15.45
2023-03-15T01:40:50.870Z,15.51
2023-03-15T01:41:52.934Z,15.42
2023-03-15T01:43:04.084Z,15.50
2023-03-15T01:44:13.952Z,15.51
2023-03-15T01:45:54.512Z,15.55
2023-03-15T01:46:57.027Z,15.58
2023-03-15T01:47:59.539Z,15.53
2023-03-15T01:49:23.574Z,15.49
2023-03-15T01:50:25.665Z,15.53
2023-03-15T01:51:50.710Z,15.51
2023-03-15T01:52:53.602Z,15.53
2023-03-15T01:54:10.500Z,15.50
2023-03-15T01:55:19.560Z,15.51
2023-03-15T01:56:42.043Z,15.53
2023-03-15T01:57:57.405Z,15.50
2023-03-15T01:59:05.321Z,15.50
2023-03-15T02:00:12.199Z,15.48
2023-03-15T02:01:45.662Z,15.51
2023-03-15T02:02:55.828Z,15.46
2023-03-15T02:04:07.912Z,15.48
2023-03-15T02:05:20.546Z,15.46
2023-03-15T02:06:24.105Z,15.46
2023-03-15T02:07:34.676Z,15.21
2023-03-15T02:08:43.748Z,15.40
2023-03-15T02:10:11.020Z,15.49
2023-03-15T02:11:14.788Z,15.48
2023-03-15T02:12:18.895Z,15.44
2023-03-15T02:13:25.259Z,15.39
2023-03-15T02:14:29.555Z,15.42
2023-03-15T02:15:33.124Z,15.33
2023-03-15T02:16:39.017Z,15.40
2023-03-15T02:17:46.369Z,15.38
2023-03-15T02:18:48.505Z,15.38
2023-03-15T02:20:13.502Z,15.38
2023-03-15T02:21:20.309Z,15.44
2023-03-15T02:22:31.062Z,15.41
2023-03-15T02:23:33.033Z,15.41
2023-03-15T02:24:53.356Z,15.37
2023-03-15T02:26:14.442Z,15.44
2023-03-15T02:27:26.076Z,15.41
2023-03-15T02:28:28.531Z,15.40
2023-03-15T02:29:30.909Z,15.32
2023-03-15T02:30:32.903Z,15.28
2023-03-15T02:31:38.124Z,15.21
2023-03-15T02:32:41.342Z,15.34
2023-03-15T02:33:51.252Z,15.34
2023-03-15T02:34:53.246Z,15.35
2023-03-15T02:35:56.260Z,15.24
2023-03-15T02:36:58.119Z,15.32
2023-03-15T02:38:02.732Z,15.33
2023-03-15T02:39:15.098Z,15.28
2023-03-15T02:40:21.358Z,15.32
2023-03-15T02:41:36.685Z,15.34
2023-03-15T02:42:38.572Z,15.35
2023-03-15T02:43:41.867Z,15.29
2023-03-15T02:44:46.002Z,15.30
2023-03-15T02:45:49.579Z,15.32
2023-03-15T02:46:55.033Z,15.24
2023-03-15T02:47:57.016Z,15.23
2023-03-15T02:49:00.361Z,15.20
2023-03-15T02:50:03.125Z,15.29
2023-03-15T02:51:05.258Z,15.27
2023-03-15T02:52:07.545Z,15.27
2023-03-15T02:53:09.382Z,15.28
2023-03-15T02:54:11.224Z,15.27
2023-03-15T02:55:13.025Z,15.28
2023-03-15T02:56:15.435Z,15.22
2023-03-15T02:57:19.275Z,15.19
2023-03-15T02:58:21.932Z,15.26
2023-03-15T02:59:23.838Z,15.19
2023-03-15T03:00:26.282Z,15.25
2023-03-15T03:01:28.096Z,15.24
2023-03-15T03:02:29.946Z,15.23
2023-03-15T03:03:31.769Z,15.19
2023-03-15T03:04:35.967Z,15.27
2023-03-15T03:05:37.867Z,15.27
2023-03-15T03:06:40.048Z,15.27
2023-03-15T03:07:43.060Z,15.22
2023-03-15T03:08:47.338Z,15.26
2023-03-15T03:09:52.006Z,15.25
2023-03-15T03:10:55.721Z,15.26
2023-03-15T03:11:57.667Z,15.27
2023-03-15T03:12:59.760Z,15.27
2023-03-15T03:14:14.169Z,15.26
2023-03-15T03:15:16.912Z,15.30
2023-03-15T03:16:18.891Z,15.29
2023-03-15T03:17:20.805Z,15.18
2023-03-15T03:18:22.661Z,15.27
2023-03-15T03:19:25.846Z,15.28
2023-03-15T03:20:28.206Z,15.26
2023-03-15T03:21:31.202Z,15.25
2023-03-15T03:22:33.891Z,15.18
2023-03-15T03:23:36.695Z,15.27
2023-03-15T03:24:39.516Z,15.18
2023-03-15T03:25:41.395Z,15.27
2023-03-15T03:26:46.269Z,15.20
2023-03-15T03:27:49.709Z,15.28
2023-03-15T03:28:51.538Z,15.27
2023-03-15T03:29:53.326Z,15.18
2023-03-15T03:30:56.227Z,15.23
2023-03-15T03:31:58.107Z,15.23
2023-03-15T03:33:00.001Z,15.21
2023-03-15T03:34:02.084Z,15.16
2023-03-15T03:35:05.403Z,15.14
2023-03-15T03:36:08.452Z,15.23
2023-03-15T03:37:11.160Z,15.24
2023-03-15T03:38:28.667Z,15.28
2023-03-15T03:39:32.892Z,15.27
2023-03-15T03:40:36.901Z,15.26
2023-03-15T03:41:39.760Z,15.25
2023-03-15T03:42:42.499Z,15.24
2023-03-15T03:43:44.382Z,15.01
2023-03-15T03:44:46.476Z,15.22
2023-03-15T03:45:48.625Z,15.19
2023-03-15T03:46:52.238Z,15.20
2023-03-15T03:47:54.070Z,15.20
2023-03-15T03:48:56.170Z,15.20
2023-03-15T03:49:58.066Z,15.20
2023-03-15T03:51:00.162Z,15.02
2023-03-15T03:52:02.376Z,15.19
2023-03-15T03:53:04.243Z,15.14
2023-03-15T03:54:09.334Z,15.14
2023-03-15T03:55:15.164Z,15.19
2023-03-15T03:56:17.990Z,15.15
2023-03-15T03:57:19.827Z,15.19
2023-03-15T03:58:21.830Z,15.18
2023-03-15T03:59:28.899Z,15.14
2023-03-15T04:00:38.022Z,15.19
2023-03-15T04:01:42.259Z,15.20
2023-03-15T04:02:46.543Z,15.19
2023-03-15T04:03:51.288Z,15.18
2023-03-15T04:04:55.364Z,15.13
2023-03-15T04:05:58.824Z,15.16
2023-03-15T04:07:02.281Z,15.11
2023-03-15T04:08:09.432Z,15.17
2023-03-15T04:09:15.653Z,15.17
2023-03-15T04:10:19.796Z,15.10
2023-03-15T04:11:26.881Z,15.16
2023-03-15T04:12:35.896Z,15.16
2023-03-15T04:13:37.816Z,15.09
2023-03-15T04:14:40.199Z,15.15
2023-03-15T04:15:44.898Z,15.14
2023-03-15T04:16:46.816Z,15.12
2023-03-15T04:17:58.571Z,15.13
2023-03-15T04:19:07.970Z,15.15
2023-03-15T04:20:13.063Z,15.13
2023-03-15T04:21:23.184Z,15.14
2023-03-15T04:22:29.264Z,15.13
2023-03-15T04:23:41.054Z,15.14
2023-03-15T04:25:09.307Z,15.19
2023-03-15T04:26:39.829Z,15.18
2023-03-15T04:28:00.015Z,15.18
2023-03-15T04:29:23.352Z,15.20
2023-03-15T04:30:49.429Z,15.15
2023-03-15T04:32:14.396Z,15.20
2023-03-15T04:33:26.230Z,15.10
2023-03-15T04:34:51.436Z,15.17
2023-03-15T04:36:19.032Z,15.13
2023-03-15T04:37:42.525Z,15.18
2023-03-15T04:39:07.530Z,15.19
2023-03-15T04:40:38.596Z,15.17
2023-03-15T04:42:03.528Z,15.18
2023-03-15T04:43:41.134Z,15.18
2023-03-15T04:44:56.933Z,15.16
2023-03-15T04:46:17.300Z,15.16
2023-03-15T04:47:39.393Z,15.13
2023-03-15T04:49:06.141Z,15.15
2023-03-15T04:50:26.234Z,15.13
2023-03-15T04:51:50.856Z,15.08
2023-03-15T04:53:24.870Z,15.08
2023-03-15T04:54:39.340Z,15.11
2023-03-15T04:56:07.341Z,15.13
2023-03-15T04:57:16.734Z,15.11
2023-03-15T04:58:26.264Z,15.08
2023-03-15T04:59:37.518Z,15.04
2023-03-15T05:01:12.544Z,15.11
2023-03-15T05:02:42.697Z,15.14
2023-03-15T05:04:01.979Z,15.11
2023-03-15T05:05:23.693Z,15.09
2023-03-15T05:06:36.711Z,15.07
2023-03-15T05:07:57.101Z,15.07
2023-03-15T05:08:58.977Z,15.02
2023-03-15T05:10:16.140Z,15.03
2023-03-15T05:11:21.003Z,15.01
2023-03-15T05:12:36.673Z,15.03
2023-03-15T05:13:57.115Z,15.04
2023-03-15T05:15:13.423Z,15.02
2023-03-15T05:16:39.171Z,15.07
2023-03-15T05:18:01.277Z,14.98
2023-03-15T05:19:35.689Z,15.08
2023-03-15T05:20:57.804Z,15.08
2023-03-15T05:22:19.866Z,15.03
2023-03-15T05:23:41.192Z,15.07
2023-03-15T05:25:05.829Z,15.08
2023-03-15T05:26:25.401Z,15.06
2023-03-15T05:27:56.303Z,15.07
2023-03-15T05:29:22.734Z,15.08
2023-03-15T05:30:34.221Z,14.97
2023-03-15T05:31:42.834Z,15.03
2023-03-15T05:33:20.991Z,15.07
2023-03-15T05:34:49.082Z,15.07
2023-03-15T05:36:07.761Z,15.06
2023-03-15T05:37:25.892Z,15.04
2023-03-15T05:38:47.921Z,15.04
2023-03-15T05:40:09.525Z,15.03
2023-03-15T05:41:31.573Z,15.02
2023-03-15T05:42:52.521Z,15.02
2023-03-15T05:44:09.846Z,15.01
2023-03-15T05:45:50.608Z,15.06
2023-03-15T05:47:22.966Z,15.06
2023-03-15T05:48:40.182Z,15.04
2023-03-15T05:49:53.334Z,15.01
2023-03-15T05:51:08.655Z,14.99
2023-03-15T05:52:28.848Z,15.00
2023-03-15T05:53:46.442Z,14.95
2023-03-15T05:55:17.824Z,14.95
2023-03-15T05:56:38.190Z,14.54
2023-03-15T05:58:07.714Z,14.94
2023-03-15T05:59:19.138Z,14.90
2023-03-15T06:00:39.596Z,14.99
2023-03-15T06:01:50.664Z,14.98
2023-03-15T06:03:01.035Z,14.96
2023-03-15T06:04:36.498Z,15.00
2023-03-15T06:05:38.977Z,14.96
2023-03-15T06:06:44.872Z,14.87
2023-03-15T06:07:47.408Z,14.91
2023-03-15T06:08:50.655Z,14.87
2023-03-15T06:09:52.513Z,14.89
2023-03-15T06:10:54.461Z,14.82
2023-03-15T06:11:56.495Z,14.90
2023-03-15T06:12:58.381Z,14.91
2023-03-15T06:14:00.261Z,14.93
2023-03-15T06:15:24.387Z,14.95
2023-03-15T06:16:27.612Z,15.02
2023-03-15T06:17:32.409Z,15.03
2023-03-15T06:18:34.278Z,15.05
2023-03-15T06:19:37.832Z,15.07
2023-03-15T06:20:41.255Z,15.08
2023-03-15T06:21:47.616Z,15.13
2023-03-15T06:22:59.749Z,15.12
2023-03-15T06:24:09.292Z,15.17
2023-03-15T06:25:11.582Z,15.24
2023-03-15T06:26:15.355Z,15.26
2023-03-15T06:27:21.951Z,15.29
2023-03-15T06:28:25.028Z,15.34
2023-03-15T06:29:31.448Z,15.31
2023-03-15T06:30:35.233Z,15.40
2023-03-15T06:31:37.200Z,15.43
2023-03-15T06:32:42.917Z,15.41
2023-03-15T06:33:44.895Z,15.48
2023-03-15T06:34:46.776Z,15.52
2023-03-15T06:35:50.696Z,15.54
2023-03-15T06:36:56.038Z,15.58
2023-03-15T06:37:57.956Z,15.61
2023-03-15T06:38:59.884Z,15.63
2023-03-15T06:40:06.371Z,15.66
2023-03-15T06:41:08.745Z,15.71
2023-03-15T06:42:13.832Z,15.73
2023-03-15T06:43:19.581Z,15.75
2023-03-15T06:44:21.893Z,15.78
2023-03-15T06:45:31.739Z,15.81
2023-03-15T06:46:34.025Z,15.76
2023-03-15T06:47:35.925Z,15.85
2023-03-15T06:48:39.127Z,15.86
2023-03-15T06:49:42.272Z,15.89
2023-03-15T06:50:47.682Z,15.89
2023-03-15T06:51:50.714Z,15.91
2023-03-15T06:52:52.547Z,15.94
2023-03-15T06:53:54.845Z,15.95
2023-03-15T06:54:57.088Z,15.98
2023-03-15T06:55:59.097Z,15.87
2023-03-15T06:57:00.888Z,16.00
2023-03-15T06:58:02.816Z,16.00
2023-03-15T06:59:05.276Z,16.02
2023-03-15T07:00:11.317Z,15.96
2023-03-15T07:01:14.506Z,16.05
2023-03-15T07:02:18.547Z,16.06
2023-03-15T07:03:22.372Z,16.08
2023-03-15T07:04:24.246Z,16.00
2023-03-15T07:05:26.077Z,16.09
2023-03-15T07:06:28.402Z,16.11
2023-03-15T07:07:30.551Z,16.10
2023-03-15T07:08:32.692Z,16.13
2023-03-15T07:09:34.445Z,16.14
2023-03-15T07:10:36.641Z,16.15
2023-03-15T07:11:38.490Z,16.14
2023-03-15T07:12:40.260Z,16.16
2023-03-15T07:13:42.048Z,16.17
2023-03-15T07:14:43.834Z,16.16
2023-03-15T07:15:47.788Z,16.15
2023-03-15T07:16:49.602Z,16.14
2023-03-15T07:17:51.487Z,16.08
2023-03-15T07:18:55.587Z,16.22
2023-03-15T07:19:57.360Z,16.22
2023-03-15T07:21:00.979Z,16.15
2023-03-15T07:22:02.769Z,16.25
2023-03-15T07:23:05.071Z,16.18
2023-03-15T07:24:07.048Z,16.25
2023-03-15T07:25:09.691Z,16.18
2023-03-15T07:26:11.604Z,16.27
2023-03-15T07:27:15.712Z,16.27
2023-03-15T07:28:19.014Z,16.28
2023-03-15T07:29:20.868Z,16.27
2023-03-15T07:30:22.692Z,16.22
2023-03-15T07:31:24.592Z,16.26
2023-03-15T07:32:26.453Z,16.28
2023-03-15T07:33:30.161Z,16.24
2023-03-15T07:34:32.020Z,16.30
2023-03-15T07:35:33.852Z,16.24
2023-03-15T07:36:35.659Z,16.31
2023-03-15T07:37:38.513Z,16.32
2023-03-15T07:38:43.453Z,16.32
2023-03-15T07:39:45.248Z,16.27
2023-03-15T07:40:47.043Z,16.34
2023-03-15T07:41:48.999Z,16.34
2023-03-15T07:42:57.816Z,16.35
2023-03-15T07:43:59.826Z,16.33
2023-03-15T07:45:01.832Z,16.36
2023-03-15T07:46:03.781Z,16.36
2023-03-15T07:47:05.700Z,16.35
2023-03-15T07:48:07.564Z,16.36
2023-03-15T07:49:09.477Z,16.37
2023-03-15T07:50:13.231Z,16.30
2023-03-15T07:51:16.326Z,16.39
2023-03-15T07:52:18.273Z,16.39
2023-03-15T07:53:20.356Z,16.39
2023-03-15T07:54:23.290Z,16.38
2023-03-15T07:55:25.707Z,16.39
2023-03-15T07:56:27.578Z,16.29
2023-03-15T07:57:29.423Z,16.40
2023-03-15T07:58:31.762Z,16.36
2023-03-15T07:59:33.862Z,16.39
2023-03-15T08:00:35.709Z,16.39
2023-03-15T08:01:37.609Z,16.39
2023-03-15T08:02:40.464Z,16.40
2023-03-15T08:03:42.400Z,16.40
2023-03-15T08:04:44.863Z,16.41
2023-03-15T08:05:46.817Z,16.42
2023-03-15T08:06:48.625Z,16.33
2023-03-15T08:07:50.899Z,16.29
2023-03-15T08:08:52.798Z,16.41
2023-03-15T08:09:54.573Z,16.40
2023-03-15T08:10:57.000Z,16.40
2023-03-15T08:11:59.005Z,16.41
2023-03-15T08:13:00.898Z,16.37
2023-03-15T08:14:02.692Z,16.36
2023-03-15T08:15:04.909Z,16.42
2023-03-15T08:16:07.061Z,16.42
2023-03-15T08:17:13.131Z,16.42
2023-03-15T08:18:15.112Z,16.35
2023-03-15T08:19:17.054Z,16.35
2023-03-15T08:20:19.139Z,16.40
2023-03-15T08:21:21.693Z,16.36
2023-03-15T08:22:24.108Z,16.36
2023-03-15T08:23:26.410Z,16.43
2023-03-15T08:24:28.284Z,16.43
2023-03-15T08:25:31.004Z,16.43
2023-03-15T08:26:32.940Z,16.43
2023-03-15T08:27:34.814Z,16.38
2023-03-15T08:28:36.668Z,16.43
2023-03-15T08:29:38.566Z,16.42
2023-03-15T08:30:40.724Z,16.43
2023-03-15T08:31:42.834Z,16.44
2023-03-15T08:32:46.875Z,16.42
2023-03-15T08:33:48.683Z,16.43
2023-03-15T08:34:53.182Z,16.42
2023-03-15T08:35:55.212Z,16.43
2023-03-15T08:36:57.222Z,16.43
2023-03-15T08:37:59.027Z,16.43
2023-03-15T08:39:00.821Z,16.42
2023-03-15T08:40:08.279Z,16.41
2023-03-15T08:41:10.109Z,16.41
2023-03-15T08:42:12.117Z,16.43
2023-03-15T08:43:13.981Z,16.42
2023-03-15T08:44:15.865Z,16.43
2023-03-15T08:45:17.916Z,16.42
2023-03-15T08:46:22.106Z,16.41
2023-03-15T08:47:24.124Z,16.43
2023-03-15T08:48:25.913Z,16.43
2023-03-15T08:49:27.696Z,16.43
2023-03-15T08:50:31.761Z,16.43
2023-03-15T08:51:33.766Z,16.42
2023-03-15T08:52:35.649Z,16.38
2023-03-15T08:53:38.436Z,16.43
2023-03-15T08:54:40.654Z,16.43
2023-03-15T08:55:42.529Z,16.43
2023-03-15T08:56:44.586Z,16.40
2023-03-15T08:57:46.552Z,16.42
2023-03-15T08:58:48.573Z,16.42
2023-03-15T08:59:50.617Z,16.43
2023-03-15T09:00:52.852Z,16.41
2023-03-15T09:01:54.617Z,16.42
2023-03-15T09:02:56.605Z,16.43
2023-03-15T09:03:58.406Z,16.43
2023-03-15T09:05:00.239Z,16.25
2023-03-15T09:06:02.044Z,16.42
2023-03-15T09:07:03.826Z,16.41
2023-03-15T09:08:05.652Z,16.35
2023-03-15T09:09:07.441Z,16.42
2023-03-15T09:10:13.288Z,16.38
2023-03-15T09:11:15.124Z,16.43
2023-03-15T09:12:17.515Z,16.39
2023-03-15T09:13:19.269Z,16.42
2023-03-15T09:14:21.120Z,16.42
2023-03-15T09:15:23.127Z,16.41
2023-03-15T09:16:25.066Z,16.41
2023-03-15T09:17:26.970Z,16.41
2023-03-15T09:18:28.778Z,16.41
2023-03-15T09:19:32.393Z,16.41
2023-03-15T09:20:34.561Z,16.32
2023-03-15T09:21:36.365Z,16.41
2023-03-15T09:22:39.789Z,16.41
2023-03-15T09:23:41.783Z,16.39
2023-03-15T09:24:43.633Z,16.40
2023-03-15T09:25:45.683Z,16.41
2023-03-15T09:26:47.470Z,16.41
2023-03-15T09:27:49.610Z,16.32
2023-03-15T09:28:51.587Z,16.41
2023-03-15T09:29:53.432Z,16.40
2023-03-15T09:30:55.639Z,16.39
2023-03-15T09:31:57.476Z,16.43
2023-03-15T09:32:59.420Z,16.36
2023-03-15T09:34:01.570Z,16.42
2023-03-15T09:35:05.210Z,16.42
2023-03-15T09:36:07.846Z,16.43
2023-03-15T09:37:10.162Z,16.44
2023-03-15T09:38:11.988Z,16.42
2023-03-15T09:39:13.736Z,16.40
2023-03-15T09:40:27.492Z,16.45
2023-03-15T09:41:45.878Z,16.46
2023-03-15T09:43:08.971Z,16.52
2023-03-15T09:44:22.475Z,16.50
2023-03-15T09:45:50.560Z,16.48
2023-03-15T09:47:23.246Z,16.55
2023-03-15T09:48:32.411Z,16.55
2023-03-15T09:49:44.541Z,16.51
2023-03-15T09:50:54.693Z,16.48
2023-03-15T09:52:13.539Z,16.49
2023-03-15T09:53:21.619Z,16.49
2023-03-15T09:54:32.265Z,16.47
2023-03-15T09:55:34.062Z,16.50
2023-03-15T09:56:45.761Z,16.44
2023-03-15T09:57:53.429Z,16.48
2023-03-15T09:58:59.861Z,16.50
2023-03-15T10:00:07.203Z,16.50
2023-03-15T10:01:14.616Z,16.50
2023-03-15T10:02:24.882Z,16.50
2023-03-15T10:03:38.740Z,16.53
2023-03-15T10:04:44.825Z,16.48
2023-03-15T10:05:55.968Z,16.54
2023-03-15T10:07:01.130Z,16.57
2023-03-15T10:08:03.341Z,16.57
2023-03-15T10:09:22.296Z,16.53
2023-03-15T10:10:39.019Z,16.62
2023-03-15T10:11:55.709Z,16.63
2023-03-15T10:13:22.182Z,16.67
2023-03-15T10:14:46.992Z,16.66
2023-03-15T10:16:17.976Z,16.68
2023-03-15T10:17:58.410Z,16.76
2023-03-15T10:19:31.838Z,16.75
2023-03-15T10:20:41.352Z,16.70
2023-03-15T10:22:13.620Z,16.62
2023-03-15T10:23:53.087Z,16.72
2023-03-15T10:25:11.420Z,16.72
2023-03-15T10:26:19.101Z,16.70
2023-03-15T10:27:36.494Z,16.67
2023-03-15T10:28:39.813Z,16.64
2023-03-15T10:29:42.548Z,16.64
2023-03-15T10:30:49.253Z,16.60
2023-03-15T10:31:54.449Z,16.64
2023-03-15T10:33:05.396Z,16.64
2023-03-15T10:34:09.980Z,16.65
2023-03-15T10:35:17.633Z,16.65
2023-03-15T10:36:24.929Z,16.60
2023-03-15T10:37:27.113Z,16.67
2023-03-15T10:38:29.157Z,16.66
2023-03-15T10:39:31.884Z,16.67
2023-03-15T10:40:40.816Z,16.65
2023-03-15T10:41:45.438Z,16.68
2023-03-15T10:42:47.522Z,16.67
2023-03-15T10:44:04.824Z,16.67
2023-03-15T10:45:28.297Z,16.71
2023-03-15T10:46:30.180Z,16.76
2023-03-15T10:47:32.013Z,16.74
2023-03-15T10:48:39.765Z,16.71
2023-03-15T10:49:41.955Z,16.71
2023-03-15T10:50:43.787Z,16.62
2023-03-15T10:51:48.100Z,16.69
2023-03-15T10:52:51.420Z,16.63
2023-03-15T10:54:06.962Z,16.69
2023-03-15T10:55:16.513Z,16.74
2023-03-15T10:56:25.840Z,16.73
2023-03-15T10:57:33.522Z,16.70
2023-03-15T10:58:50.879Z,16.76
2023-03-15T11:00:06.952Z,16.57
2023-03-15T11:01:35.905Z,16.74
2023-03-15T11:02:37.926Z,16.76
2023-03-15T11:03:41.776Z,16.72
2023-03-15T11:04:49.252Z,16.76
2023-03-15T11:05:53.647Z,16.76
2023-03-15T11:06:58.521Z,16.75
2023-03-15T11:08:01.533Z,16.74
2023-03-15T11:09:25.448Z,16.77
2023-03-15T11:10:33.431Z,16.78
2023-03-15T11:11:53.668Z,16.82
2023-03-15T11:13:13.634Z,16.83
2023-03-15T11:14:15.415Z,16.82
2023-03-15T11:15:19.492Z,16.78
2023-03-15T11:16:22.104Z,16.77
2023-03-15T11:17:30.755Z,16.75
2023-03-15T11:18:57.545Z,16.79
2023-03-15T11:20:30.620Z,16.87
2023-03-15T11:21:35.728Z,16.88
2023-03-15T11:22:37.502Z,16.85
2023-03-15T11:23:44.058Z,16.81
2023-03-15T11:24:45.957Z,16.81
2023-03-15T11:25:48.292Z,16.76
2023-03-15T11:26:53.571Z,16.80
2023-03-15T11:27:55.360Z,16.80
2023-03-15T11:29:01.153Z,16.78
2023-03-15T11:30:04.460Z,16.80
2023-03-15T11:31:06.600Z,16.81
2023-03-15T11:32:18.618Z,16.80
2023-03-15T11:33:52.429Z,16.88
2023-03-15T11:35:07.005Z,16.85
2023-03-15T11:36:15.967Z,16.86
2023-03-15T11:37:41.427Z,16.94
2023-03-15T11:38:45.097Z,16.92
2023-03-15T11:40:08.848Z,16.89
2023-03-15T11:41:29.984Z,16.93
2023-03-15T11:42:38.221Z,16.90
2023-03-15T11:44:16.993Z,16.94
2023-03-15T11:45:39.664Z,16.99
2023-03-15T11:47:24.970Z,17.01
2023-03-15T11:48:50.469Z,17.00
2023-03-15T11:49:57.837Z,16.96
2023-03-15T11:51:01.339Z,16.94
2023-03-15T11:52:04.260Z,16.91
2023-03-15T11:53:07.101Z,16.89
2023-03-15T11:54:17.581Z,16.87
2023-03-15T11:55:28.145Z,16.90
2023-03-15T11:56:52.113Z,16.94
2023-03-15T11:57:55.580Z,16.93
2023-03-15T11:59:08.667Z,16.92
2023-03-15T12:00:44.946Z,16.87
2023-03-15T12:02:09.763Z,17.00
2023-03-15T12:03:34.559Z,17.00
2023-03-15T12:04:36.459Z,16.74
2023-03-15T12:05:51.008Z,16.95
2023-03-15T12:06:57.433Z,16.95
2023-03-15T12:08:17.018Z,16.93
2023-03-15T12:09:33.776Z,16.97
2023-03-15T12:10:46.588Z,16.96
2023-03-15T12:11:48.456Z,16.95
2023-03-15T12:12:59.564Z,16.92
2023-03-15T12:14:01.696Z,16.93
2023-03-15T12:15:35.395Z,16.99
2023-03-15T12:16:42.791Z,16.93
2023-03-15T12:17:57.225Z,16.96
2023-03-15T12:19:02.065Z,16.87
2023-03-15T12:20:14.592Z,16.93
2023-03-15T12:21:21.261Z,16.92
2023-03-15T12:22:23.299Z,16.92
2023-03-15T12:23:48.664Z,16.96
2023-03-15T12:24:50.629Z,16.90
2023-03-15T12:25:57.207Z,16.92
2023-03-15T12:27:01.159Z,16.93
2023-03-15T12:28:18.842Z,16.92
2023-03-15T12:29:26.948Z,16.94
2023-03-15T12:30:45.180Z,16.93
2023-03-15T12:31:52.938Z,16.97
2023-03-15T12:32:56.431Z,16.95
2023-03-15T12:34:01.040Z,16.95
2023-03-15T12:35:17.571Z,16.95
2023-03-15T12:36:41.137Z,16.99
2023-03-15T12:37:46.420Z,16.91
2023-03-15T12:39:01.094Z,16.97
2023-03-15T12:40:28.503Z,17.00
2023-03-15T12:41:43.655Z,17.01
2023-03-15T12:42:52.730Z,17.00
2023-03-15T12:44:18.667Z,17.00
2023-03-15T12:45:20.522Z,17.00
2023-03-15T12:46:41.256Z,17.00
2023-03-15T12:47:51.931Z,17.00
2023-03-15T12:49:11.305Z,17.00
2023-03-15T12:50:44.345Z,17.03
2023-03-15T12:52:00.466Z,17.04
2023-03-15T12:53:05.378Z,17.01
2023-03-15T12:54:14.159Z,16.92
2023-03-15T12:55:18.344Z,16.96
2023-03-15T12:56:50.489Z,16.96
2023-03-15T12:57:56.648Z,16.89
2023-03-15T12:59:05.013Z,16.98
2023-03-15T13:00:15.413Z,16.97
2023-03-15T13:01:18.566Z,16.89
2023-03-15T13:02:43.391Z,16.96
2023-03-15T13:03:45.983Z,16.91
2023-03-15T13:04:49.944Z,16.96
2023-03-15T13:06:08.769Z,16.96
2023-03-15T13:07:25.868Z,16.97
2023-03-15T13:08:52.582Z,16.97
2023-03-15T13:10:07.552Z,17.00
2023-03-15T13:11:33.674Z,17.03
2023-03-15T13:12:41.738Z,17.01
2023-03-15T13:14:01.374Z,17.00
2023-03-15T13:15:08.216Z,16.99
2023-03-15T13:16:22.470Z,17.00
2023-03-15T13:17:47.444Z,17.02
2023-03-15T13:19:05.398Z,17.01
2023-03-15T13:20:46.228Z,17.07
2023-03-15T13:22:33.451Z,17.09
2023-03-15T13:23:37.385Z,17.10
2023-03-15T13:25:00.007Z,17.05
2023-03-15T13:26:26.770Z,17.06
2023-03-15T13:27:54.268Z,17.05
2023-03-15T13:29:06.514Z,17.06
2023-03-15T13:30:47.917Z,17.08
2023-03-15T13:32:11.945Z,17.06
2023-03-15T13:33:28.635Z,17.09
2023-03-15T13:34:34.223Z,17.06
2023-03-15T13:35:55.350Z,17.04
2023-03-15T13:36:59.217Z,17.02
2023-03-15T13:38:22.983Z,16.86
2023-03-15T13:39:30.519Z,17.00
2023-03-15T13:40:32.317Z,17.01
2023-03-15T13:41:34.164Z,16.99
2023-03-15T13:42:39.463Z,16.96
2023-03-15T13:43:42.455Z,16.85
2023-03-15T13:44:44.476Z,16.97
2023-03-15T13:45:46.372Z,16.97
2023-03-15T13:46:50.354Z,16.95
2023-03-15T13:47:52.161Z,16.95
2023-03-15T13:48:56.248Z,16.87
2023-03-15T13:49:58.080Z,16.97
2023-03-15T13:51:06.355Z,16.96
2023-03-15T13:52:14.852Z,16.93
2023-03-15T13:53:35.620Z,16.98
2023-03-15T13:54:45.805Z,17.05
2023-03-15T13:55:51.897Z,17.01
2023-03-15T13:57:14.132Z,17.01
2023-03-15T13:58:16.109Z,17.04
2023-03-15T13:59:19.147Z,17.01
2023-03-15T14:00:23.321Z,17.01
2023-03-15T14:01:27.074Z,17.01
2023-03-15T14:02:28.873Z,17.00
2023-03-15T14:03:31.181Z,17.01
2023-03-15T14:04:40.535Z,17.00
2023-03-15T14:05:53.960Z,17.03
2023-03-15T14:07:30.051Z,17.12
2023-03-15T14:08:35.015Z,17.10
2023-03-15T14:09:36.916Z,17.08
2023-03-15T14:10:39.844Z,17.06
2023-03-15T14:11:43.368Z,17.02
2023-03-15T14:12:46.316Z,17.02
2023-03-15T14:13:52.190Z,17.02
2023-03-15T14:14:54.049Z,17.03
2023-03-15T14:16:00.317Z,16.99
2023-03-15T14:17:27.521Z,17.00
2023-03-15T14:18:35.257Z,17.02
2023-03-15T14:19:37.242Z,17.05
2023-03-15T14:20:45.068Z,17.03
2023-03-15T14:21:58.938Z,17.04
2023-03-15T14:23:02.449Z,17.05
2023-03-15T14:24:07.468Z,17.03
2023-03-15T14:25:22.148Z,16.99
2023-03-15T14:26:28.778Z,17.04
2023-03-15T14:27:32.532Z,17.05
2023-03-15T14:28:34.435Z,17.02
2023-03-15T14:29:45.650Z,16.98
2023-03-15T14:31:06.011Z,16.97
2023-03-15T14:32:29.027Z,17.07
2023-03-15T14:33:36.527Z,17.07
2023-03-15T14:34:46.836Z,17.07
2023-03-15T14:35:48.657Z,17.04
2023-03-15T14:36:55.644Z,17.03
2023-03-15T14:38:25.009Z,17.10
2023-03-15T14:39:29.713Z,17.07